createdAt,value
2019-05-05T00:04:45.710Z,97606.00
2019-05-05T00:09:55.085Z,97605.00
2019-05-05T00:15:05.281Z,97602.00
2019-05-05T00:20:14.520Z,97600.00
2019-05-05T00:25:21.851Z,97614.00
2019-05-05T00:30:30.938Z,97606.00
2019-05-05T00:35:39.306Z,97619.00
2019-05-05T00:40:46.560Z,97620.00
2019-05-05T00:45:55.708Z,97628.00
2019-05-05T00:51:05.731Z,97629.00
2019-05-05T00:56:14.411Z,97632.00
2019-05-05T01:01:30.054Z,97642.00
2019-05-05T01:06:39.884Z,97651.00
2019-05-05T01:11:47.111Z,97663.00
2019-05-05T01:16:54.659Z,97662.00
2019-05-05T01:22:02.558Z,97663.00
2019-05-05T01:27:09.840Z,97675.00
2019-05-05T01:32:20.663Z,97673.00
2019-05-05T01:37:29.440Z,97680.00
2019-05-05T01:42:37.483Z,97692.00
2019-05-05T01:47:45.350Z,97695.00
2019-05-05T01:52:52.824Z,97696.00
2019-05-05T01:58:00.253Z,97695.00
2019-05-05T02:03:07.542Z,97694.00
2019-05-05T02:08:15.315Z,97686.00
2019-05-05T02:13:25.155Z,97700.00
2019-05-05T02:18:34.472Z,97718.00
2019-05-05T02:23:41.543Z,97726.00
2019-05-05T02:28:51.027Z,97724.00
2019-05-05T02:33:59.057Z,97728.00
2019-05-05T02:39:11.194Z,97721.00
2019-05-05T02:44:18.727Z,97732.00
2019-05-05T02:49:29.013Z,97759.00
2019-05-05T02:54:39.022Z,97757.00
2019-05-05T02:59:48.341Z,97746.00
2019-05-05T03:04:56.898Z,97761.00
2019-05-05T03:10:09.040Z,97785.00
2019-05-05T03:15:46.149Z,97794.00
2019-05-05T03:21:03.808Z,97787.00
2019-05-05T03:26:04.019Z,97797.00
2019-05-05T03:31:15.496Z,97796.00
2019-05-05T03:36:24.511Z,97804.00
2019-05-05T03:41:43.854Z,97808.00
2019-05-05T03:46:54.248Z,97806.00
2019-05-05T03:52:02.277Z,97803.00
2019-05-05T03:57:09.544Z,97814.00
2019-05-05T04:07:55.726Z,97817.00
2019-05-05T04:13:04.680Z,97821.00
2019-05-05T04:18:14.567Z,97823.00
2019-05-05T04:23:21.940Z,97830.00
2019-05-05T04:28:29.944Z,97835.00
2019-05-05T04:33:37.182Z,97842.00
2019-05-05T04:38:44.441Z,97844.00
2019-05-05T04:43:51.658Z,97859.00
2019-05-05T04:49:14.146Z,97859.00
2019-05-05T04:54:24.388Z,97856.00
2019-05-05T04:59:34.009Z,97866.00
2019-05-05T05:04:46.384Z,97870.00
2019-05-05T05:09:54.081Z,97871.00
2019-05-05T05:15:04.309Z,97874.00
2019-05-05T05:20:14.032Z,97888.00
2019-05-05T05:25:21.487Z,97895.00
2019-05-05T05:30:29.848Z,97897.00
2019-05-05T05:35:39.292Z,97903.00
2019-05-05T05:40:53.596Z,97902.00
2019-05-05T05:46:09.425Z,97903.00
2019-05-05T05:51:19.568Z,97907.00
2019-05-05T05:56:26.878Z,97911.00
2019-05-05T06:02:09.190Z,97930.00
2019-05-05T06:07:06.894Z,97925.00
2019-05-05T06:12:15.163Z,97929.00
2019-05-05T06:17:23.793Z,97918.00
2019-05-05T06:22:31.756Z,97925.00
2019-05-05T06:27:41.322Z,97931.00
2019-05-05T06:32:49.056Z,97927.00
2019-05-05T06:37:56.479Z,97937.00
2019-05-05T06:43:23.685Z,97943.00
2019-05-05T06:48:30.518Z,97948.00
2019-05-05T06:53:39.658Z,97959.00
2019-05-05T06:58:46.866Z,97956.00
2019-05-05T07:03:54.203Z,97967.00
2019-05-05T07:09:23.958Z,97979.00
2019-05-05T07:14:31.239Z,97984.00
2019-05-05T07:19:40.185Z,97964.00
2019-05-05T07:24:47.681Z,97985.00
2019-05-05T07:29:54.922Z,97982.00
2019-05-05T07:35:09.682Z,97988.00
2019-05-05T07:40:17.972Z,98004.00
2019-05-05T07:45:26.212Z,97996.00
2019-05-05T07:50:35.798Z,97986.00
2019-05-05T07:55:44.076Z,97988.00
2019-05-05T08:00:51.576Z,97999.00
2019-05-05T08:06:03.929Z,97980.00
2019-05-05T08:11:10.973Z,97984.00
2019-05-05T08:16:20.265Z,97969.00
2019-05-05T08:21:28.034Z,98000.00
2019-05-05T08:26:44.281Z,97999.00
2019-05-05T08:32:09.784Z,98016.00
2019-05-05T08:37:18.034Z,98011.00
2019-05-05T08:42:26.123Z,98025.00
2019-05-05T08:47:34.643Z,98026.00
2019-05-05T08:52:44.212Z,98032.00
2019-05-05T08:57:53.839Z,98021.00
2019-05-05T09:03:00.516Z,98047.00
2019-05-05T09:08:21.181Z,98042.00
2019-05-05T09:13:28.392Z,98058.00
2019-05-05T09:18:39.370Z,98043.00
2019-05-05T09:23:58.946Z,98047.00
2019-05-05T09:28:57.942Z,98044.00
2019-05-05T09:34:06.326Z,98037.00
2019-05-05T09:39:13.955Z,98022.00
2019-05-05T09:44:24.273Z,98045.00
2019-05-05T09:49:33.837Z,98053.00
2019-05-05T09:54:43.688Z,98031.00
2019-05-05T09:59:50.747Z,98053.00
2019-05-05T10:04:57.960Z,98045.00
2019-05-05T10:10:06.741Z,98052.00
2019-05-05T10:15:16.493Z,98050.00
2019-05-05T10:20:23.765Z,98049.00
2019-05-05T10:25:34.315Z,98056.00
2019-05-05T10:30:42.738Z,98053.00
2019-05-05T10:35:49.970Z,98067.00
2019-05-05T10:40:57.185Z,98075.00
2019-05-05T10:46:04.408Z,98080.00
2019-05-05T10:51:11.662Z,98082.00
2019-05-05T10:56:18.861Z,98085.00
2019-05-05T11:01:26.956Z,98072.00
2019-05-05T11:06:36.170Z,98074.00
2019-05-05T11:11:43.995Z,98072.00
2019-05-05T11:16:51.226Z,98065.00
2019-05-05T11:21:59.559Z,98068.00
2019-05-05T11:27:06.735Z,98071.00
2019-05-05T11:32:16.412Z,98068.00
2019-05-05T11:37:24.745Z,98072.00
2019-05-05T11:42:31.881Z,98066.00
2019-05-05T11:47:40.052Z,98070.00
2019-05-05T11:52:47.218Z,98076.00
2019-05-05T11:57:57.575Z,98072.00
2019-05-05T12:03:04.623Z,98079.00
2019-05-05T12:08:11.785Z,98063.00
2019-05-05T12:13:18.970Z,98065.00
2019-05-05T12:18:26.181Z,98068.00
2019-05-05T12:23:34.056Z,98074.00
2019-05-05T12:28:44.009Z,98071.00
2019-05-05T12:33:51.350Z,98084.00
2019-05-05T12:38:58.549Z,98070.00
2019-05-05T12:44:08.910Z,98086.00
2019-05-05T12:49:17.096Z,98073.00
2019-05-05T12:54:25.241Z,98081.00
2019-05-05T12:59:33.885Z,98081.00
2019-05-05T13:04:42.498Z,98077.00
2019-05-05T13:09:50.692Z,98080.00
2019-05-05T13:14:58.876Z,98089.00
2019-05-05T13:20:09.736Z,98083.00
2019-05-05T13:25:25.530Z,98083.00
2019-05-05T13:30:34.404Z,98079.00
2019-05-05T13:35:41.756Z,98074.00
2019-05-05T13:40:49.717Z,98090.00
2019-05-05T13:46:05.355Z,98083.00
2019-05-05T13:51:19.989Z,98080.00
2019-05-05T13:56:27.198Z,98066.00
2019-05-05T14:01:34.990Z,98070.00
2019-05-05T14:06:44.470Z,98065.00
2019-05-05T14:11:53.493Z,98074.00
2019-05-05T14:17:00.611Z,98082.00
2019-05-05T14:22:07.955Z,98088.00
2019-05-05T14:27:15.660Z,98093.00
2019-05-05T14:32:24.328Z,98095.00
2019-05-05T14:37:36.625Z,98098.00
2019-05-05T14:42:45.623Z,98092.00
2019-05-05T14:47:53.488Z,98086.00
2019-05-05T14:53:04.468Z,98075.00
2019-05-05T14:58:11.601Z,98060.00
2019-05-05T15:03:18.697Z,98063.00
2019-05-05T15:08:37.407Z,98083.00
2019-05-05T15:13:45.170Z,98086.00
2019-05-05T15:18:52.292Z,98077.00
2019-05-05T15:24:01.431Z,98063.00
2019-05-05T15:29:08.582Z,98059.00
2019-05-05T15:34:16.838Z,98068.00
2019-05-05T15:39:24.981Z,98059.00
2019-05-05T15:44:34.469Z,98067.00
2019-05-05T15:49:44.172Z,98071.00
2019-05-05T15:54:53.949Z,98070.00
2019-05-05T16:00:08.694Z,98071.00
2019-05-05T16:05:18.133Z,98078.00
2019-05-05T16:10:27.126Z,98067.00
2019-05-05T16:15:36.118Z,98064.00
2019-05-05T16:20:57.549Z,98071.00
2019-05-05T16:26:05.998Z,98070.00
2019-05-05T16:31:14.501Z,98070.00
2019-05-05T16:36:21.814Z,98075.00
2019-05-05T16:41:29.683Z,98080.00
2019-05-05T16:46:36.799Z,98075.00
2019-05-05T16:51:54.414Z,98077.00
2019-05-05T16:57:05.801Z,98079.00
2019-05-05T17:02:14.463Z,98077.00
2019-05-05T17:07:23.801Z,98088.00
2019-05-05T17:12:33.742Z,98101.00
2019-05-05T17:17:58.167Z,98094.00
2019-05-05T17:23:07.833Z,98091.00
2019-05-05T17:28:15.086Z,98095.00
2019-05-05T17:33:24.164Z,98101.00
2019-05-05T17:38:31.089Z,98100.00
2019-05-05T17:43:54.224Z,98087.00
2019-05-05T17:49:14.022Z,98093.00
2019-05-05T17:54:33.743Z,98111.00
2019-05-05T17:59:44.043Z,98107.00
2019-05-05T18:04:54.341Z,98117.00
2019-05-05T18:10:08.839Z,98115.00
2019-05-05T18:15:37.117Z,98127.00
2019-05-05T18:20:48.260Z,98130.00
2019-05-05T18:25:57.541Z,98129.00
2019-05-05T18:31:05.754Z,98141.00
2019-05-05T18:36:15.283Z,98130.00
2019-05-05T18:41:35.344Z,98130.00
2019-05-05T18:46:45.053Z,98131.00
2019-05-05T18:51:53.882Z,98131.00
2019-05-05T18:57:05.165Z,98138.00
2019-05-05T19:02:27.500Z,98144.00
2019-05-05T19:07:39.213Z,98141.00
2019-05-05T19:12:50.980Z,98138.00
2019-05-05T19:18:01.576Z,98147.00
2019-05-05T19:23:14.638Z,98149.00
2019-05-05T19:28:23.618Z,98148.00
2019-05-05T19:33:30.654Z,98149.00
2019-05-05T19:38:38.975Z,98152.00
2019-05-05T19:43:48.707Z,98146.00
2019-05-05T19:49:14.761Z,98156.00
2019-05-05T19:54:23.999Z,98155.00
2019-05-05T19:59:35.423Z,98148.00
2019-05-05T20:04:41.793Z,98146.00
2019-05-05T20:09:50.043Z,98156.00
2019-05-05T20:14:59.788Z,98168.00
2019-05-05T20:20:09.668Z,98147.00
2019-05-05T20:25:16.975Z,98150.00
2019-05-05T20:30:36.452Z,98159.00
2019-05-05T20:35:51.352Z,98143.00
2019-05-05T20:41:15.491Z,98153.00
2019-05-05T20:46:24.131Z,98147.00
2019-05-05T20:51:44.888Z,98151.00
2019-05-05T20:56:53.868Z,98148.00
2019-05-05T21:02:04.223Z,98141.00
2019-05-05T21:07:11.503Z,98147.00
2019-05-05T21:12:21.674Z,98141.00
2019-05-05T21:17:30.143Z,98145.00
2019-05-05T21:22:53.958Z,98136.00
2019-05-05T21:28:01.267Z,98131.00
2019-05-05T21:33:09.446Z,98130.00
2019-05-05T21:38:16.536Z,98141.00
2019-05-05T21:43:26.434Z,98129.00
2019-05-05T21:48:34.066Z,98136.00
2019-05-05T21:53:42.991Z,98128.00
2019-05-05T21:58:50.709Z,98141.00
2019-05-05T22:03:57.831Z,98137.00
2019-05-05T22:09:08.526Z,98127.00
2019-05-05T22:14:18.080Z,98131.00
2019-05-05T22:19:27.779Z,98116.00
2019-05-05T22:24:35.825Z,98116.00
2019-05-05T22:29:44.631Z,98133.00
2019-05-05T22:34:51.850Z,98118.00
2019-05-05T22:39:58.971Z,98110.00
2019-05-05T22:45:07.736Z,98109.00
2019-05-05T23:08:19.880Z,98098.00
2019-05-05T23:13:27.978Z,98106.00
2019-05-05T23:18:35.121Z,98105.00
2019-05-05T23:23:59.905Z,98110.00
2019-05-05T23:29:08.127Z,98096.00
2019-05-05T23:34:17.825Z,98101.00
2019-05-05T23:39:26.804Z,98092.00
2019-05-05T23:44:36.596Z,98099.00
2019-05-05T23:49:44.743Z,98100.00
2019-05-05T23:54:51.858Z,98100.00
2019-05-05T23:59:58.883Z,98102.00
